Time;durP1;ratioP1;P1;durP2;ratioP2;P2;SDS_P1;SDS_P2;PMS_P1;PMS_P2;Temp;Humidity;BMP_temperature;BMP_pressure;BME280_temperature;BME280_humidity;BME280_pressure;Samples;Min_cycle;Max_cycle;Signal;HPM_P1;HPM_P2
2021/05/26 00:05:38;;;;;;;1.13;0.60;;;9.60;99.90;;;10.55;100.00;100235.09;5008342;28;20556;-61
2021/05/26 00:09:02;;;;;;;1.07;0.67;;;9.60;99.90;;;10.58;100.00;100232.09;5003987;28;20513;-60
2021/05/26 00:12:19;;;;;;;1.03;0.60;;;9.60;99.90;;;10.63;100.00;100225.25;5010006;28;21189;-61
2021/05/26 00:15:43;;;;;;;2.20;0.90;;;9.60;99.90;;;10.58;100.00;100230.25;5002250;28;20215;-60
2021/05/26 00:22:17;;;;;;;1.53;0.60;;;9.60;99.90;;;10.58;100.00;100224.91;5005182;28;20228;-60
2021/05/26 00:25:29;;;;;;;1.17;0.60;;;9.50;99.90;;;10.58;100.00;100216.06;5005676;28;20527;-60
2021/05/26 00:28:43;;;;;;;1.27;0.70;;;9.50;99.90;;;10.52;100.00;100220.19;5008420;28;20292;-60
2021/05/26 00:31:55;;;;;;;2.50;0.60;;;9.50;99.90;;;10.46;100.00;100214.66;4989436;28;20518;-60
2021/05/26 00:35:06;;;;;;;1.10;0.70;;;9.40;99.90;;;10.41;100.00;100218.63;4997504;28;20630;-61
2021/05/26 00:41:36;;;;;;;0.63;0.53;;;9.30;99.90;;;10.40;100.00;100208.94;5001245;28;20465;-60
2021/05/26 00:44:47;;;;;;;2.90;1.00;;;9.30;99.90;;;10.40;100.00;100211.59;5007255;28;20227;-61
2021/05/26 00:48:33;;;;;;;4.37;0.70;;;9.30;99.90;;;10.36;100.00;100199.56;5005366;28;20549;-60
2021/05/26 00:51:46;;;;;;;0.83;0.77;;;9.30;99.90;;;10.37;100.00;100214.63;4926984;28;20730;-61
2021/05/26 00:58:57;;;;;;;1.87;0.90;;;9.30;99.90;;;10.27;100.00;100208.50;5008311;28;20215;-60
2021/05/26 01:02:09;;;;;;;2.17;0.80;;;9.30;99.90;;;10.24;100.00;100208.00;5008187;28;20241;-60
2021/05/26 01:05:27;;;;;;;2.17;0.80;;;9.30;99.90;;;10.29;100.00;100206.53;4988678;28;20663;-61
2021/05/26 01:12:19;;;;;;;1.40;1.03;;;9.30;99.90;;;10.32;100.00;100200.03;5005432;28;20244;-64
2021/05/26 01:15:54;;;;;;;1.47;0.80;;;9.30;99.90;;;10.26;100.00;100195.31;4988857;28;20716;-60
2021/05/26 01:37:30;;;;;;;1.47;1.00;;;9.30;99.90;;;10.17;100.00;100185.53;4911073;28;20461;-59
2021/05/26 01:39:57;;;;;;;2.63;1.00;;;9.20;99.90;;;10.14;100.00;100192.03;4927132;28;20228;-61
2021/05/26 01:42:29;;;;;;;4.37;1.23;;;9.20;99.90;;;10.14;100.00;100186.66;4944552;28;20240;-60
2021/05/26 01:44:55;;;;;;;1.53;0.80;;;9.20;99.90;;;10.11;100.00;100187.00;4945151;28;20395;-61
2021/05/26 01:47:33;;;;;;;2.20;1.07;;;9.10;99.90;;;10.04;100.00;100183.28;4988585;28;20329;-61
2021/05/26 01:50:04;;;;;;;1.20;1.07;;;9.10;99.90;;;10.03;100.00;100189.59;5002310;28;20734;-60
2021/05/26 01:52:34;;;;;;;4.00;0.70;;;9.10;99.90;;;10.02;100.00;100183.41;4969173;28;20233;-61
2021/05/26 01:55:02;;;;;;;4.53;1.37;;;9.10;99.90;;;10.00;100.00;100184.59;4997364;28;20963;-61
2021/05/26 01:57:31;;;;;;;3.90;1.33;;;9.10;99.90;;;10.05;100.00;100183.13;4988741;28;20230;-59
2021/05/26 02:00:03;;;;;;;2.23;1.00;;;9.10;99.90;;;10.00;100.00;100181.94;4989321;28;20202;-60
2021/05/26 02:02:35;;;;;;;2.07;1.10;;;9.00;99.90;;;9.98;100.00;100187.44;5006200;28;20271;-60
2021/05/26 02:05:01;;;;;;;1.63;1.10;;;9.00;99.90;;;9.97;100.00;100180.41;5007452;28;20215;-61
2021/05/26 02:07:28;;;;;;;3.90;1.20;;;9.00;99.90;;;9.95;100.00;100186.91;5006743;28;20473;-60
2021/05/26 02:09:57;;;;;;;1.43;0.93;;;9.00;99.90;;;9.95;100.00;100178.88;4985618;28;20349;-59
2021/05/26 02:12:32;;;;;;;1.63;1.20;;;9.00;99.90;;;9.91;100.00;100183.69;4991100;28;20223;-59
2021/05/26 02:15:02;;;;;;;2.63;1.00;;;9.00;99.90;;;9.90;100.00;100183.84;4990033;28;20511;-60
2021/05/26 02:17:30;;;;;;;2.90;1.33;;;8.90;99.90;;;9.89;100.00;100179.50;4991100;28;20606;-61
2021/05/26 02:19:58;;;;;;;1.50;1.20;;;8.90;99.90;;;9.85;100.00;100180.81;5005121;28;20332;-61
2021/05/26 02:22:26;;;;;;;3.63;1.00;;;8.90;99.90;;;9.86;100.00;100180.66;5005468;28;20791;-59
2021/05/26 02:24:53;;;;;;;2.00;1.10;;;8.90;99.90;;;9.81;100.00;100177.59;5004760;28;20220;-61
2021/05/26 02:27:20;;;;;;;2.37;1.00;;;8.90;99.90;;;9.81;100.00;100174.94;4988124;28;20234;-60
2021/05/26 02:29:48;;;;;;;1.00;0.77;;;8.80;99.90;;;9.85;100.00;100180.81;4989285;28;20214;-60
2021/05/26 02:32:15;;;;;;;1.50;0.80;;;8.80;99.90;;;9.87;100.00;100170.81;4989246;28;20410;-59
2021/05/26 02:34:44;;;;;;;2.73;1.00;;;8.80;99.90;;;10.03;100.00;100168.22;4988690;28;20464;-61
2021/05/26 02:37:11;;;;;;;4.63;1.10;;;8.80;99.90;;;10.05;100.00;100163.56;5000910;28;20241;-60
2021/05/26 02:39:38;;;;;;;1.87;0.90;;;8.90;99.90;;;10.01;100.00;100168.38;4988208;28;21112;-59
2021/05/26 02:42:05;;;;;;;4.13;0.90;;;8.90;99.90;;;9.97;100.00;100166.19;4989060;28;20234;-60
2021/05/26 02:44:36;;;;;;;2.03;1.10;;;8.90;99.90;;;10.06;100.00;100162.56;4988854;28;20542;-61
2021/05/26 02:47:04;;;;;;;1.03;0.90;;;8.90;99.90;;;10.06;100.00;100165.25;4988815;28;20238;-61
2021/05/26 02:49:35;;;;;;;1.47;0.90;;;9.00;99.90;;;10.08;100.00;100166.78;4988425;28;20256;-60
2021/05/26 02:52:02;;;;;;;3.07;1.07;;;9.00;99.90;;;10.07;100.00;100165.09;4988690;28;20506;-59
2021/05/26 02:54:33;;;;;;;2.93;1.20;;;9.00;99.90;;;10.19;100.00;100171.03;4988324;28;20417;-61
2021/05/26 02:57:00;;;;;;;4.07;1.10;;;9.00;99.90;;;10.20;100.00;100163.84;4988746;28;20456;-61
2021/05/26 02:59:46;;;;;;;1.30;0.90;;;9.00;99.90;;;10.21;100.00;100171.72;5003866;28;20297;-59
2021/05/26 03:02:27;;;;;;;1.97;1.00;;;9.10;99.90;;;10.21;100.00;100160.19;4988773;28;20235;-61
2021/05/26 03:05:05;;;;;;;6.50;1.50;;;9.10;99.90;;;10.22;100.00;100173.41;5006987;28;20669;-60
2021/05/26 03:07:33;;;;;;;3.90;1.53;;;9.10;99.90;;;10.26;100.00;100173.94;5006449;28;20585;-59
2021/05/26 03:09:59;;;;;;;3.13;1.20;;;9.20;99.90;;;10.35;100.00;100172.97;5006801;28;20257;-60
2021/05/26 03:12:27;;;;;;;3.17;1.20;;;9.20;99.90;;;10.28;100.00;100172.75;4988637;28;20525;-59
2021/05/26 03:14:55;;;;;;;5.70;1.50;;;9.20;99.90;;;10.38;100.00;100164.63;5006213;28;20242;-58
2021/05/26 03:17:27;;;;;;;2.50;1.43;;;9.30;99.90;;;10.31;100.00;100164.41;5006980;28;20264;-61
2021/05/26 03:19:59;;;;;;;4.67;1.37;;;9.30;99.90;;;10.33;100.00;100170.44;4991598;28;20853;-61
2021/05/26 03:22:35;;;;;;;3.67;1.30;;;9.30;99.90;;;10.42;100.00;100163.28;5009553;28;20533;-61
2021/05/26 03:25:20;;;;;;;1.13;1.00;;;9.40;99.90;;;10.48;100.00;100169.84;5006992;28;20592;-60
2021/05/26 03:28:00;;;;;;;2.67;1.17;;;9.40;99.90;;;10.54;100.00;100156.66;4987608;28;21011;-60
2021/05/26 03:30:27;;;;;;;3.33;1.40;;;9.50;99.90;;;10.56;100.00;100162.69;5004973;28;20218;-61
2021/05/26 03:32:54;;;;;;;2.63;1.20;;;9.60;99.90;;;10.67;100.00;100159.72;5009438;28;20629;-61
2021/05/26 03:35:27;;;;;;;2.33;1.13;;;9.60;99.90;;;10.78;100.00;100162.09;4989432;28;20306;-60
2021/05/26 03:37:55;;;;;;;4.00;1.40;;;9.70;99.90;;;10.73;100.00;100160.94;5004366;28;21140;-60
2021/05/26 03:40:23;;;;;;;2.10;1.30;;;9.70;99.90;;;10.79;100.00;100154.91;4998541;28;20487;-61
2021/05/26 03:42:56;;;;;;;3.73;1.20;;;9.80;99.90;;;10.82;100.00;100151.91;5009772;28;20542;-60
2021/05/26 03:45:42;;;;;;;7.80;1.20;;;9.80;99.90;;;10.71;100.00;100152.22;5009616;28;20236;-59
2021/05/26 03:48:19;;;;;;;2.00;1.00;;;9.80;99.90;;;10.67;100.00;100146.34;5009466;28;20723;-61
2021/05/26 03:50:47;;;;;;;3.07;1.07;;;9.80;99.90;;;10.68;100.00;100142.66;4990660;28;20210;-60
2021/05/26 03:53:14;;;;;;;3.97;1.10;;;9.80;99.90;;;10.70;100.00;100146.03;4990208;28;20677;-59
2021/05/26 03:55:43;;;;;;;2.70;1.00;;;9.80;99.90;;;10.73;100.00;100144.88;5005318;28;20318;-61
2021/05/26 03:58:33;;;;;;;3.00;1.00;;;9.90;99.90;;;10.75;100.00;100151.75;4989916;28;20367;-61
2021/05/26 04:01:04;;;;;;;2.90;1.20;;;9.90;99.90;;;10.68;100.00;100147.19;5007754;28;20222;-61
2021/05/26 04:03:31;;;;;;;4.97;1.70;;;9.90;99.90;;;10.67;100.00;100149.03;5007418;28;20327;-61
2021/05/26 04:05:59;;;;;;;2.50;1.20;;;9.80;99.90;;;10.75;100.00;100148.22;4987786;28;20216;-61
2021/05/26 04:08:27;;;;;;;3.70;1.10;;;9.80;99.90;;;10.63;100.00;100146.84;4971447;28;20235;-61
2021/05/26 04:10:54;;;;;;;4.17;1.07;;;9.80;99.90;;;10.69;100.00;100159.56;5001339;28;20595;-61
2021/05/26 04:13:35;;;;;;;4.30;1.33;;;9.80;99.90;;;10.65;100.00;100152.84;4990820;28;20339;-60
2021/05/26 04:16:17;;;;;;;2.37;0.90;;;9.80;99.90;;;10.73;100.00;100151.06;4989671;28;20381;-60
2021/05/26 04:19:03;;;;;;;8.57;1.50;;;9.80;99.90;;;10.78;100.00;100146.03;4990745;28;20715;-59
2021/05/26 04:21:31;;;;;;;3.57;1.30;;;9.80;99.90;;;10.90;100.00;100143.06;5008644;28;20881;-60
2021/05/26 04:23:59;;;;;;;7.73;1.47;;;9.80;99.90;;;11.16;100.00;100138.44;5009525;28;20687;-60
2021/05/26 04:26:26;;;;;;;3.17;1.03;;;9.90;99.90;;;11.22;100.00;100147.66;4990873;28;20260;-59
2021/05/26 04:28:53;;;;;;;2.40;1.13;;;9.90;99.90;;;11.44;100.00;100149.69;5009117;28;20404;-60
2021/05/26 04:31:20;;;;;;;2.97;1.30;;;10.00;99.90;;;11.53;100.00;100154.03;5008737;28;20275;-60
2021/05/26 04:33:48;;;;;;;3.47;1.30;;;10.10;99.90;;;11.70;100.00;100144.97;4990313;28;20320;-60
2021/05/26 04:36:15;;;;;;;1.43;1.03;;;10.20;99.90;;;11.76;100.00;100143.50;5009198;28;20605;-60
2021/05/26 04:38:42;;;;;;;3.47;1.30;;;10.30;99.90;;;11.65;100.00;100141.13;5009485;28;20206;-60
2021/05/26 04:41:08;;;;;;;1.10;1.00;;;10.40;99.90;;;11.65;100.00;100146.47;5001166;28;20313;-60
2021/05/26 04:43:35;;;;;;;5.13;1.07;;;10.50;99.90;;;11.98;100.00;100141.97;5006538;28;20415;-60
2021/05/26 04:46:02;;;;;;;4.00;1.27;;;10.60;99.90;;;11.77;100.00;100137.97;5004773;28;20222;-59
2021/05/26 04:48:29;;;;;;;2.73;1.53;;;10.70;99.90;;;11.89;100.00;100135.75;5012421;28;20230;-59
2021/05/26 04:50:56;;;;;;;1.67;1.00;;;10.70;99.90;;;12.10;100.00;100141.44;5005018;28;20319;-60
2021/05/26 04:53:22;;;;;;;3.20;1.13;;;10.80;99.90;;;11.93;100.00;100126.38;5005066;28;20649;-60
2021/05/26 04:55:50;;;;;;;3.70;1.40;;;10.90;99.90;;;12.24;100.00;100134.50;5012490;28;20315;-60
2021/05/26 04:58:16;;;;;;;3.27;0.90;;;10.90;99.90;;;12.50;100.00;100134.25;5004727;28;20332;-61
2021/05/26 05:00:45;;;;;;;2.90;1.60;;;11.00;99.90;;;12.44;100.00;100129.59;5005173;28;20485;-60
2021/05/26 05:03:19;;;;;;;1.80;0.90;;;11.20;99.90;;;12.60;100.00;100129.53;5004232;28;20892;-60
2021/05/26 05:05:46;;;;;;;4.03;1.23;;;11.30;99.90;;;12.67;100.00;100125.13;5005308;28;20218;-59
2021/05/26 05:08:12;;;;;;;3.23;1.27;;;11.40;99.90;;;12.63;100.00;100129.16;5003979;28;20246;-60
2021/05/26 05:10:39;;;;;;;3.83;1.53;;;11.50;99.90;;;12.76;100.00;100133.94;4986254;28;20583;-61
2021/05/26 05:13:06;;;;;;;5.63;1.27;;;11.70;99.90;;;13.02;100.00;100129.09;5007832;28;20751;-61
2021/05/26 05:15:32;;;;;;;3.40;1.20;;;11.70;99.90;;;12.80;100.00;100119.19;5008169;28;20732;-60
2021/05/26 05:17:59;;;;;;;3.93;1.00;;;11.90;99.90;;;12.99;100.00;100129.44;5008218;28;20325;-61
2021/05/26 05:20:26;;;;;;;6.60;1.23;;;12.00;99.90;;;12.98;100.00;100129.66;5008030;28;20936;-61
2021/05/26 05:22:56;;;;;;;4.70;1.03;;;12.10;99.90;;;12.88;100.00;100121.81;5008598;28;20214;-60
2021/05/26 05:25:23;;;;;;;2.87;1.30;;;12.20;99.90;;;13.06;100.00;100132.28;5008245;28;20206;-61
2021/05/26 05:27:50;;;;;;;3.40;1.13;;;12.20;99.90;;;13.21;100.00;100123.31;5008384;28;20613;-61
2021/05/26 05:30:23;;;;;;;2.23;1.17;;;12.30;99.90;;;13.32;100.00;100118.53;5008412;28;20579;-60
2021/05/26 05:32:49;;;;;;;4.33;1.03;;;12.40;99.90;;;13.65;100.00;100127.97;5007320;28;20234;-61
2021/05/26 05:35:16;;;;;;;2.27;0.93;;;12.50;99.90;;;13.78;100.00;100117.44;5007467;28;20293;-62
2021/05/26 05:37:42;;;;;;;4.17;1.43;;;12.70;99.90;;;13.60;100.00;100117.75;5008196;28;20222;-59
2021/05/26 05:40:10;;;;;;;2.67;1.00;;;12.80;99.90;;;13.90;100.00;100120.53;5007661;28;20798;-62
2021/05/26 05:42:37;;;;;;;4.00;1.20;;;13.00;99.90;;;13.41;100.00;100122.81;5006475;28;20675;-62
2021/05/26 05:45:08;;;;;;;4.20;1.20;;;13.00;99.90;;;13.40;100.00;100126.53;5007910;28;20574;-61
2021/05/26 05:55:01;;;;;;;4.07;1.00;;;13.20;99.90;;;13.83;100.00;100114.22;4987249;28;20582;-61
2021/05/26 05:57:27;;;;;;;2.53;1.10;;;13.40;99.90;;;13.66;100.00;100118.91;4988275;28;20246;-61
2021/05/26 05:59:54;;;;;;;2.10;0.80;;;13.40;99.90;;;13.69;100.00;100115.84;4988127;28;20219;-61
2021/05/26 06:02:20;;;;;;;4.40;1.47;;;13.50;99.90;;;13.66;100.00;100124.28;4987562;28;20501;-62
2021/05/26 06:04:48;;;;;;;2.23;1.30;;;13.50;99.90;;;13.97;100.00;100116.09;4987947;28;20219;-60
2021/05/26 06:07:14;;;;;;;2.93;0.93;;;13.50;99.90;;;13.84;100.00;100122.09;5000076;28;20672;-61
2021/05/26 06:09:40;;;;;;;2.73;1.10;;;13.60;99.90;;;13.39;100.00;100124.84;4988986;28;20327;-61
2021/05/26 06:12:08;;;;;;;3.87;1.20;;;13.60;99.20;;;13.81;100.00;100114.41;5007475;28;20218;-61
2021/05/26 06:14:34;;;;;;;1.87;1.00;;;13.60;99.90;;;13.98;100.00;100115.03;5008061;28;20210;-61
2021/05/26 06:17:06;;;;;;;4.47;1.10;;;13.60;99.90;;;13.99;100.00;100117.56;5007953;28;20712;-60
2021/05/26 06:19:33;;;;;;;4.17;1.10;;;13.60;99.90;;;14.11;100.00;100112.56;5002360;28;20453;-60
2021/05/26 06:22:00;;;;;;;3.37;1.30;;;13.70;99.90;;;14.13;100.00;100115.91;4982163;28;20510;-61
2021/05/26 06:24:27;;;;;;;4.50;1.27;;;13.80;99.50;;;14.22;100.00;100122.84;4969548;28;20270;-61
2021/05/26 06:26:53;;;;;;;3.23;1.00;;;13.80;99.30;;;14.26;100.00;100120.63;4989313;28;20219;-61
2021/05/26 06:29:20;;;;;;;3.20;1.10;;;13.90;99.20;;;14.23;100.00;100113.75;4988509;28;20207;-61
2021/05/26 06:31:47;;;;;;;2.43;0.90;;;14.00;97.20;;;14.47;100.00;100115.34;4987609;28;20508;-61
2021/05/26 06:34:13;;;;;;;4.20;1.30;;;14.00;97.10;;;14.74;100.00;100113.81;4987819;28;20493;-61
2021/05/26 06:36:47;;;;;;;2.87;1.30;;;14.10;97.60;;;14.23;100.00;100119.13;4998890;28;20679;-61
2021/05/26 06:39:20;;;;;;;4.77;1.20;;;14.30;95.80;;;14.44;100.00;100110.38;5001458;28;20649;-60
2021/05/26 06:41:47;;;;;;;1.90;1.00;;;14.30;95.40;;;14.43;100.00;100114.06;5007434;28;20505;-60
2021/05/26 06:44:13;;;;;;;3.33;1.17;;;14.40;94.70;;;14.47;100.00;100109.97;5007710;28;20213;-61
2021/05/26 06:46:40;;;;;;;2.80;1.10;;;14.40;94.10;;;14.41;100.00;100108.03;4988568;28;20218;-61
2021/05/26 06:49:07;;;;;;;3.33;1.30;;;14.50;93.50;;;14.43;100.00;100114.06;5007976;28;20724;-61
2021/05/26 06:51:34;;;;;;;2.90;1.30;;;14.60;92.60;;;14.49;100.00;100113.31;5007044;28;20222;-61
2021/05/26 06:54:09;;;;;;;2.53;1.20;;;14.60;92.70;;;14.60;100.00;100109.31;5010820;28;20318;-61
2021/05/26 06:56:37;;;;;;;3.77;1.20;;;14.60;92.30;;;14.92;100.00;100106.19;5011069;28;20229;-60
2021/05/26 06:59:04;;;;;;;3.20;1.10;;;14.60;92.60;;;14.83;100.00;100101.09;5011005;28;20210;-61
2021/05/26 07:01:30;;;;;;;3.97;1.27;;;14.70;92.20;;;15.35;100.00;100111.56;5009706;28;20864;-61
2021/05/26 07:03:57;;;;;;;3.23;1.10;;;14.80;92.30;;;15.23;100.00;100110.41;5010427;28;20802;-60
2021/05/26 07:06:26;;;;;;;2.38;1.05;;;15.00;91.60;;;15.14;100.00;100095.41;5010632;28;20206;-60
2021/05/26 07:08:52;;;;;;;3.22;1.42;;;15.20;90.60;;;15.23;100.00;100100.47;5010122;28;20544;-61
2021/05/26 07:11:19;;;;;;;2.42;1.08;;;15.30;90.50;;;15.61;100.00;100113.69;5010457;28;20609;-61
2021/05/26 07:13:46;;;;;;;4.20;1.30;;;15.40;90.70;;;15.19;100.00;100106.47;5011160;28;20483;-61
2021/05/26 07:16:12;;;;;;;4.63;1.15;;;15.50;87.60;;;14.95;100.00;100103.09;5010435;28;20238;-61
2021/05/26 07:18:42;;;;;;;3.60;1.10;;;15.60;84.40;;;14.70;100.00;100102.63;5009280;28;20222;-61
2021/05/26 07:21:09;;;;;;;3.30;1.08;;;15.50;83.20;;;14.63;100.00;100103.53;5009827;28;20211;-60
2021/05/26 07:23:36;;;;;;;2.08;0.90;;;15.40;83.10;;;14.69;100.00;100108.19;5010470;28;20373;-59
2021/05/26 07:26:02;;;;;;;2.40;1.33;;;15.30;84.80;;;14.81;100.00;100111.22;5010767;28;20221;-59
2021/05/26 07:28:28;;;;;;;2.33;1.10;;;15.20;85.50;;;14.69;100.00;100097.41;5009932;28;20472;-59
2021/05/26 07:30:56;;;;;;;2.73;1.30;;;15.20;83.50;;;14.86;100.00;100101.53;5010637;28;20595;-60
2021/05/26 07:33:22;;;;;;;5.03;1.20;;;15.20;85.00;;;14.83;100.00;100101.09;5009234;28;20526;-60
2021/05/26 07:35:49;;;;;;;3.40;1.20;;;15.10;85.40;;;14.86;100.00;100106.09;5009863;28;20494;-61
2021/05/26 07:38:15;;;;;;;5.13;1.37;;;15.10;85.90;;;15.12;100.00;100108.22;5009804;28;20218;-60
2021/05/26 07:40:42;;;;;;;5.17;1.33;;;15.00;85.20;;;15.15;100.00;100097.91;5009657;28;20561;-60
2021/05/26 07:43:09;;;;;;;3.97;1.20;;;15.10;85.90;;;14.95;100.00;100100.41;5010044;28;20292;-60
2021/05/26 07:45:35;;;;;;;2.65;1.08;;;15.20;83.80;;;15.06;100.00;100099.91;5010168;28;20493;-59
2021/05/26 07:48:03;;;;;;;5.22;1.48;;;15.20;83.90;;;15.16;100.00;100104.97;4990818;28;20497;-60
2021/05/26 07:50:34;;;;;;;2.90;1.50;;;15.20;85.50;;;15.26;100.00;100101.94;5008294;28;20468;-60
2021/05/26 07:53:01;;;;;;;3.05;1.08;;;15.30;86.40;;;15.14;100.00;100101.63;5009835;28;20233;-60
2021/05/26 07:55:27;;;;;;;3.22;1.25;;;15.30;85.50;;;15.17;100.00;100103.13;5008670;28;20697;-60
2021/05/26 07:57:54;;;;;;;2.83;1.20;;;15.30;85.60;;;14.92;100.00;100095.41;5008157;28;20238;-60
2021/05/26 08:00:21;;;;;;;5.95;1.52;;;15.30;82.90;;;15.13;100.00;100088.34;5005623;28;20629;-60
2021/05/26 08:02:48;;;;;;;3.28;1.30;;;15.30;83.70;;;15.53;100.00;100086.84;5008010;28;20226;-60
2021/05/26 08:05:18;;;;;;;3.80;1.63;;;15.40;82.80;;;15.68;100.00;100083.06;5001877;28;20223;-61
2021/05/26 08:07:44;;;;;;;3.92;1.50;;;15.60;80.80;;;15.53;100.00;100081.47;5002064;28;20478;-60
2021/05/26 08:10:12;;;;;;;4.05;1.50;;;15.70;77.30;;;15.65;100.00;100086.16;5000562;28;20306;-59
2021/05/26 08:12:39;;;;;;;2.53;1.25;;;15.70;77.50;;;15.89;100.00;100084.03;4991351;28;20657;-60
2021/05/26 08:15:07;;;;;;;2.28;1.15;;;15.80;77.40;;;15.77;100.00;100083.75;5003108;28;20633;-60
2021/05/26 08:17:33;;;;;;;3.63;1.23;;;15.90;77.30;;;15.74;100.00;100076.03;4997730;28;20264;-60
2021/05/26 08:20:01;;;;;;;3.60;0.80;;;15.90;76.30;;;16.01;100.00;100075.19;5004807;28;20445;-61
2021/05/26 08:22:28;;;;;;;4.28;1.40;;;16.00;75.30;;;16.07;100.00;100060.88;5005584;28;20242;-60
2021/05/26 08:24:55;;;;;;;2.58;0.80;;;16.10;74.00;;;16.18;100.00;100056.81;5004305;28;20530;-61
2021/05/26 08:27:21;;;;;;;4.45;1.20;;;16.20;73.10;;;16.28;100.00;100059.13;5006315;28;20690;-61
2021/05/26 08:29:48;;;;;;;3.80;1.30;;;16.30;72.80;;;16.35;100.00;100051.91;5004310;28;20210;-61
2021/05/26 08:32:14;;;;;;;4.43;1.13;;;16.40;73.30;;;16.46;100.00;100046.75;5010673;28;20454;-61
2021/05/26 08:34:44;;;;;;;5.93;1.33;;;16.50;73.50;;;16.41;100.00;100043.00;5006106;28;20556;-61
2021/05/26 08:37:10;;;;;;;2.63;1.30;;;16.60;72.30;;;16.25;100.00;100038.78;5006812;28;20463;-60
2021/05/26 08:39:37;;;;;;;4.97;1.00;;;16.70;68.90;;;15.78;100.00;100047.66;5005534;28;20227;-61
2021/05/26 08:42:04;;;;;;;4.07;1.48;;;16.70;66.50;;;15.80;100.00;100046.44;5002219;28;20641;-60
2021/05/26 08:44:31;;;;;;;5.68;1.38;;;16.50;67.10;;;15.69;100.00;100038.06;4997805;28;20544;-60
2021/05/26 08:46:58;;;;;;;4.78;1.30;;;16.40;67.60;;;15.61;100.00;100035.47;4995020;28;20725;-61
2021/05/26 08:49:26;;;;;;;3.70;1.27;;;16.30;68.90;;;15.51;100.00;100032.28;5001476;28;20505;-59
2021/05/26 08:51:52;;;;;;;4.20;1.45;;;16.10;69.70;;;15.48;100.00;100030.78;5001122;28;20234;-59
2021/05/26 08:54:19;;;;;;;4.07;1.58;;;16.00;71.30;;;15.27;100.00;100034.38;4998426;28;20873;-60
2021/05/26 08:56:49;;;;;;;5.32;1.25;;;15.80;72.60;;;15.33;100.00;100022.00;5006129;28;20312;-59
2021/05/26 08:59:17;;;;;;;3.30;1.30;;;15.70;74.10;;;15.38;100.00;100030.31;5004996;28;20237;-60
2021/05/26 09:01:48;;;;;;;2.83;1.30;;;15.60;76.40;;;15.30;100.00;100027.75;5007171;28;20238;-61
2021/05/26 09:04:30;;;;;;;2.55;1.40;;;15.50;78.10;;;15.21;100.00;100031.59;5005178;28;20395;-60
2021/05/26 09:07:08;;;;;;;3.40;1.30;;;15.40;79.30;;;14.85;100.00;100024.44;5005670;28;20319;-61
2021/05/26 09:09:49;;;;;;;5.85;1.98;;;15.20;85.20;;;14.67;100.00;100027.59;5002056;28;20971;-60
2021/05/26 09:12:31;;;;;;;4.55;1.52;;;14.80;92.70;;;14.28;100.00;100024.41;4991629;28;20991;-61
2021/05/26 09:15:08;;;;;;;4.65;1.80;;;14.40;96.30;;;14.12;100.00;100030.81;4986443;28;20294;-61
2021/05/26 09:17:35;;;;;;;4.67;1.77;;;13.90;99.90;;;13.91;100.00;100031.56;5009487;28;20521;-61
2021/05/26 09:20:23;;;;;;;3.03;1.50;;;13.50;99.90;;;13.89;100.00;100030.94;5010693;28;20295;-62
2021/05/26 09:23:04;;;;;;;4.60;1.40;;;13.30;99.90;;;13.89;100.00;100024.72;5002148;28;20233;-61
2021/05/26 09:25:32;;;;;;;4.40;2.03;;;13.00;99.90;;;13.92;100.00;100025.19;5001222;28;20442;-61
2021/05/26 09:28:18;;;;;;;3.63;1.70;;;12.90;99.90;;;14.00;100.00;100017.00;5006160;28;20557;-61
2021/05/26 09:30:49;;;;;;;3.87;1.73;;;12.90;99.90;;;14.21;100.00;100015.44;4992538;28;20226;-61
2021/05/26 09:33:45;;;;;;;3.90;2.00;;;12.80;99.90;;;14.21;100.00;100010.03;5006024;28;20687;-61
2021/05/26 09:36:18;;;;;;;7.30;2.13;;;12.90;99.90;;;14.37;100.00;100007.94;4999192;28;20522;-61
2021/05/26 09:38:52;;;;;;;6.57;1.43;;;12.90;99.90;;;14.44;100.00;100007.22;5008278;28;20239;-60
2021/05/26 09:41:23;;;;;;;4.40;1.43;;;13.00;99.90;;;14.34;100.00;100000.25;4999236;28;20713;-61
2021/05/26 09:43:52;;;;;;;4.63;1.50;;;13.10;99.90;;;14.38;100.00;100004.22;4998919;28;20697;-61
2021/05/26 09:46:32;;;;;;;2.67;1.27;;;13.20;99.90;;;14.57;100.00;100000.13;4995654;28;20605;-61
2021/05/26 09:49:11;;;;;;;5.00;1.60;;;13.20;99.90;;;14.56;100.00;100003.03;5004783;28;20772;-62
2021/05/26 09:51:41;;;;;;;4.10;1.77;;;13.30;99.90;;;14.57;100.00;100000.13;5004085;28;20536;-62
2021/05/26 09:54:20;;;;;;;2.27;1.20;;;13.40;99.90;;;14.57;100.00;99996.63;5002595;28;20748;-62
2021/05/26 09:56:50;;;;;;;4.17;1.20;;;13.50;99.90;;;14.64;100.00;99994.81;5005477;28;20233;-62
2021/05/26 09:59:18;;;;;;;6.07;1.57;;;13.50;99.90;;;14.61;100.00;99992.50;5009335;28;20489;-61
2021/05/26 10:01:45;;;;;;;2.47;1.00;;;13.60;99.90;;;14.57;100.00;99994.75;5005540;28;20328;-62
2021/05/26 10:04:11;;;;;;;2.03;1.17;;;13.50;99.90;;;14.52;100.00;99996.34;5005983;28;20518;-60
2021/05/26 10:11:08;;;;;;;2.20;1.10;;;13.30;99.90;;;14.26;100.00;100003.06;4985458;28;20230;-62
2021/05/26 10:14:23;;;;;;;4.33;1.33;;;13.10;99.90;;;14.18;100.00;100003.16;4982099;28;20234;-62
2021/05/26 10:17:40;;;;;;;3.97;1.80;;;13.00;99.90;;;14.12;100.00;100011.16;4996942;28;20421;-59
2021/05/26 10:24:26;;;;;;;3.87;1.80;;;12.70;99.90;;;13.97;100.00;100006.59;4991387;28;20541;-59
2021/05/26 10:27:54;;;;;;;4.43;1.40;;;12.60;99.90;;;13.93;100.00;99999.13;4987954;28;20226;-60
2021/05/26 10:34:40;;;;;;;2.50;1.60;;;12.50;99.90;;;13.60;100.00;100006.69;5006606;28;20209;-60
2021/05/26 10:38:16;;;;;;;5.60;2.00;;;12.50;99.90;;;13.63;100.00;99993.75;5008894;28;20603;-61
2021/05/26 10:41:27;;;;;;;2.93;1.63;;;12.40;99.90;;;13.53;100.00;99995.88;4994356;28;20266;-60
2021/05/26 10:56:44;;;;;;;5.10;2.17;;;12.30;99.90;;;13.27;100.00;100012.41;4868665;28;20788;-60
2021/05/26 10:59:55;;;;;;;3.03;2.10;;;12.20;99.90;;;13.33;100.00;100012.72;4936553;28;20777;-60
2021/05/26 11:07:13;;;;;;;7.37;2.10;;;12.20;99.90;;;13.31;100.00;99999.47;4916460;28;20236;-58
2021/05/26 11:14:54;;;;;;;4.30;2.47;;;12.10;99.90;;;13.53;100.00;100000.41;4893530;28;20283;-59
2021/05/26 11:18:40;;;;;;;4.13;2.57;;;12.20;99.90;;;13.58;100.00;100003.41;4907797;28;20229;-59
2021/05/26 11:21:51;;;;;;;3.23;2.13;;;12.30;99.90;;;13.40;100.00;100000.22;4998689;28;20223;-59
2021/05/26 11:25:34;;;;;;;5.80;2.30;;;12.30;99.90;;;13.57;100.00;99999.03;4985837;28;20222;-58
2021/05/26 11:32:32;;;;;;;3.83;2.20;;;12.30;99.90;;;13.56;100.00;100000.03;5005464;28;20648;-57
2021/05/26 11:35:46;;;;;;;6.37;1.70;;;12.30;99.90;;;13.38;100.00;99996.88;5006288;28;20733;-58
2021/05/26 11:39:03;;;;;;;8.93;2.67;;;12.30;99.90;;;13.40;100.00;99992.97;5002202;28;20504;-59
2021/05/26 11:42:32;;;;;;;4.73;2.00;;;12.30;99.90;;;13.29;100.00;99988.88;4997984;28;20918;-59
2021/05/26 11:45:43;;;;;;;4.00;1.60;;;12.30;99.90;;;13.24;100.00;99988.59;5005663;28;20651;-58
2021/05/26 11:49:09;;;;;;;6.00;2.10;;;12.30;99.90;;;13.35;100.00;100003.47;5005525;28;20261;-59
2021/05/26 11:52:28;;;;;;;3.53;1.63;;;12.20;99.90;;;13.36;100.00;100002.41;5009240;28;20265;-59
2021/05/26 11:55:40;;;;;;;2.37;1.80;;;12.20;99.90;;;13.42;100.00;99998.19;5010488;28;20578;-59
2021/05/26 11:59:20;;;;;;;3.57;2.17;;;12.30;99.90;;;13.45;100.00;100013.94;4997738;28;20655;-59
2021/05/26 12:02:33;;;;;;;2.43;1.67;;;12.30;99.90;;;13.14;100.00;100004.13;4990274;28;20620;-59
2021/05/26 12:06:11;;;;;;;3.33;1.77;;;12.30;99.90;;;13.17;100.00;99994.88;4998525;28;21040;-58
2021/05/26 12:13:17;;;;;;;1.90;1.60;;;12.40;99.90;;;13.52;100.00;99987.97;4984740;28;20270;-59
2021/05/26 12:16:31;;;;;;;5.57;2.10;;;12.40;99.90;;;13.59;100.00;99987.09;4989199;28;20542;-58
2021/05/26 12:19:15;;;;;;;4.53;2.03;;;12.50;99.90;;;13.69;100.00;99988.66;4987731;28;20494;-58
2021/05/26 12:21:43;;;;;;;5.30;2.30;;;12.50;99.90;;;13.66;100.00;99984.47;4984756;28;20305;-58